createdAt,value
2023-02-19T00:01:49.152Z,2.20
2023-02-19T00:04:22.019Z,3.13
2023-02-19T00:06:50.343Z,2.50
2023-02-19T00:09:19.203Z,2.70
2023-02-19T00:11:47.840Z,2.65
2023-02-19T00:14:18.053Z,2.65
2023-02-19T00:16:45.969Z,2.60
2023-02-19T00:19:16.581Z,2.58
2023-02-19T00:21:44.073Z,3.15
2023-02-19T00:24:12.915Z,2.05
2023-02-19T00:26:41.646Z,2.15
2023-02-19T00:29:13.010Z,2.42
2023-02-19T00:31:40.758Z,2.30
2023-02-19T00:34:09.486Z,2.45
2023-02-19T00:36:38.564Z,2.20
2023-02-19T00:39:08.080Z,2.78
2023-02-19T00:41:36.059Z,2.25
2023-02-19T00:44:08.432Z,3.58
2023-02-19T00:46:41.624Z,2.55
2023-02-19T00:49:15.278Z,2.50
2023-02-19T00:51:43.183Z,2.60
2023-02-19T00:54:11.182Z,2.70
2023-02-19T00:56:38.639Z,1.98
2023-02-19T00:59:05.872Z,2.40
2023-02-19T01:01:33.491Z,2.22
2023-02-19T01:04:00.851Z,2.70
2023-02-19T01:06:30.756Z,2.53
2023-02-19T01:08:57.889Z,2.63
2023-02-19T01:11:25.487Z,2.10
2023-02-19T01:13:57.780Z,1.80
2023-02-19T01:16:25.552Z,2.17
2023-02-19T01:18:53.717Z,2.30
2023-02-19T01:21:23.592Z,1.67
2023-02-19T01:23:52.020Z,2.28
2023-02-19T01:26:22.914Z,2.03
2023-02-19T01:28:50.117Z,2.33
2023-02-19T01:31:21.308Z,2.45
2023-02-19T01:33:50.936Z,2.03
2023-02-19T01:36:19.027Z,2.40
2023-02-19T01:38:47.332Z,2.08
2023-02-19T01:41:18.598Z,2.05
2023-02-19T01:44:07.998Z,2.10
2023-02-19T01:46:41.504Z,1.85
2023-02-19T01:49:21.105Z,1.95
2023-02-19T01:54:25.232Z,2.08
2023-02-19T01:56:53.688Z,2.25
2023-02-19T01:59:21.117Z,1.67
2023-02-19T02:01:48.922Z,1.90
2023-02-19T02:08:41.997Z,3.20
2023-02-19T02:11:09.568Z,1.83
2023-02-19T02:13:38.770Z,1.75
2023-02-19T02:16:43.060Z,2.47
2023-02-19T02:20:02.231Z,1.70
2023-02-19T02:25:14.704Z,1.60
2023-02-19T02:28:22.442Z,1.90
2023-02-19T02:30:56.374Z,2.42
2023-02-19T02:34:01.882Z,1.67
2023-02-19T02:36:42.614Z,1.88
2023-02-19T02:39:15.290Z,2.17
2023-02-19T02:42:13.727Z,2.22
2023-02-19T02:45:03.561Z,1.67
2023-02-19T02:47:44.846Z,1.65
2023-02-19T02:50:22.381Z,2.63
2023-02-19T02:53:14.454Z,1.83
2023-02-19T02:55:44.599Z,2.40
2023-02-19T02:58:14.405Z,2.25
2023-02-19T03:01:04.881Z,1.60
2023-02-19T03:03:34.917Z,2.45
2023-02-19T03:06:06.908Z,1.30
2023-02-19T03:08:40.836Z,1.40
2023-02-19T03:11:31.623Z,1.55
2023-02-19T03:14:39.073Z,1.50
2023-02-19T03:17:35.685Z,1.67
2023-02-19T03:20:07.569Z,1.52
2023-02-19T03:22:38.404Z,1.33
2023-02-19T03:25:27.750Z,1.60
2023-02-19T03:27:58.581Z,2.20
2023-02-19T03:30:35.452Z,1.88
2023-02-19T03:33:08.282Z,1.33
2023-02-19T03:35:46.631Z,2.10
2023-02-19T03:38:23.476Z,2.40
2023-02-19T03:41:10.788Z,1.90
2023-02-19T03:43:56.382Z,2.00
2023-02-19T03:46:39.551Z,1.98
2023-02-19T03:49:32.654Z,2.38
2023-02-19T03:52:03.251Z,1.77
2023-02-19T03:55:16.798Z,1.98
2023-02-19T03:57:51.421Z,1.73
2023-02-19T04:00:40.429Z,1.85
2023-02-19T04:03:47.067Z,1.55
2023-02-19T04:06:23.220Z,3.10
2023-02-19T04:08:55.394Z,1.88
2023-02-19T04:11:24.679Z,2.33
2023-02-19T04:14:05.517Z,2.55
2023-02-19T04:16:36.206Z,1.70
2023-02-19T04:19:08.776Z,1.65
2023-02-19T04:21:37.816Z,2.25
2023-02-19T04:24:12.279Z,2.58
2023-02-19T04:26:40.454Z,2.30
2023-02-19T04:29:07.789Z,2.42
2023-02-19T04:31:35.879Z,2.75
2023-02-19T04:34:05.154Z,2.25
2023-02-19T04:36:33.221Z,2.05
2023-02-19T04:39:00.855Z,2.03
2023-02-19T04:41:28.171Z,2.08
2023-02-19T04:43:55.591Z,1.75
2023-02-19T04:46:22.754Z,2.40
2023-02-19T04:48:50.061Z,2.85
2023-02-19T04:51:17.296Z,2.45
2023-02-19T04:53:44.788Z,2.67
2023-02-19T04:56:14.736Z,1.88
2023-02-19T04:58:43.302Z,2.22
2023-02-19T05:01:11.842Z,2.20
2023-02-19T05:03:39.446Z,2.45
2023-02-19T05:06:10.231Z,1.83
2023-02-19T05:08:37.895Z,1.90
2023-02-19T05:11:06.899Z,1.80
2023-02-19T05:13:34.553Z,2.28
2023-02-19T05:16:04.364Z,1.92
2023-02-19T05:18:32.862Z,2.03
2023-02-19T05:21:01.701Z,2.08
2023-02-19T05:23:29.443Z,2.22
2023-02-19T05:25:56.748Z,1.70
2023-02-19T05:28:28.979Z,2.33
2023-02-19T05:30:57.613Z,1.48
2023-02-19T05:33:26.367Z,8.27
2023-02-19T05:35:55.354Z,1.70
2023-02-19T05:38:23.556Z,1.80
2023-02-19T05:40:51.378Z,1.90
2023-02-19T05:43:18.849Z,3.33
2023-02-19T05:45:45.978Z,4.22
2023-02-19T05:48:13.290Z,3.80
2023-02-19T05:50:40.418Z,3.20
2023-02-19T05:53:13.488Z,2.33
2023-02-19T05:55:40.686Z,3.63
2023-02-19T05:58:08.223Z,3.95
2023-02-19T06:00:35.368Z,3.63
2023-02-19T06:03:03.082Z,3.55
2023-02-19T06:05:30.328Z,2.75
2023-02-19T06:07:57.793Z,3.15
2023-02-19T06:10:24.982Z,3.05
2023-02-19T06:12:53.732Z,2.95
2023-02-19T06:15:21.738Z,2.53
2023-02-19T06:17:49.227Z,2.10
2023-02-19T06:20:16.673Z,2.35
2023-02-19T06:22:44.073Z,2.03
2023-02-19T06:25:12.827Z,2.10
2023-02-19T06:27:40.330Z,3.00
2023-02-19T06:30:08.110Z,2.50
2023-02-19T06:32:35.940Z,2.63
2023-02-19T06:35:03.390Z,3.20
2023-02-19T06:37:31.023Z,3.38
2023-02-19T06:39:58.221Z,5.00
2023-02-19T06:42:25.736Z,10.13
2023-02-19T06:44:52.951Z,5.25
2023-02-19T06:47:25.167Z,2.95
2023-02-19T06:49:52.991Z,2.88
2023-02-19T06:52:21.555Z,3.10
2023-02-19T06:54:48.793Z,2.38
2023-02-19T06:57:16.466Z,3.72
2023-02-19T06:59:43.774Z,3.80
2023-02-19T07:02:12.570Z,3.25
2023-02-19T07:04:39.902Z,3.22
2023-02-19T07:07:10.554Z,4.25
2023-02-19T07:09:37.887Z,4.65
2023-02-19T07:12:05.905Z,2.20
2023-02-19T07:14:33.083Z,2.28
2023-02-19T07:17:00.863Z,2.50
2023-02-19T07:19:28.032Z,3.85
2023-02-19T07:21:55.584Z,4.63
2023-02-19T07:24:22.927Z,6.95
2023-02-19T07:26:50.600Z,7.47
2023-02-19T07:29:17.797Z,6.60
2023-02-19T07:31:45.447Z,3.42
2023-02-19T07:34:12.732Z,7.10
2023-02-19T07:36:40.344Z,5.95
2023-02-19T07:39:09.936Z,4.85
2023-02-19T07:41:37.700Z,3.83
2023-02-19T07:44:06.577Z,4.35
2023-02-19T07:46:34.179Z,6.82
2023-02-19T07:49:01.512Z,12.00
2023-02-19T07:51:29.154Z,12.95
2023-02-19T07:53:56.540Z,5.60
2023-02-19T07:56:24.197Z,9.27
2023-02-19T07:58:51.479Z,6.65
2023-02-19T08:01:45.326Z,3.70
2023-02-19T08:04:14.284Z,4.68
2023-02-19T08:06:42.584Z,3.70
2023-02-19T08:09:10.574Z,4.93
2023-02-19T08:11:56.685Z,8.48
2023-02-19T08:14:27.679Z,5.10
2023-02-19T08:17:06.196Z,11.45
2023-02-19T08:19:33.816Z,25.08
2023-02-19T08:22:01.861Z,22.60
2023-02-19T08:24:29.301Z,21.33
2023-02-19T08:26:57.297Z,12.88
2023-02-19T08:29:25.274Z,12.25
2023-02-19T08:31:53.050Z,18.75
2023-02-19T08:34:20.354Z,17.00
2023-02-19T08:36:48.034Z,7.95
2023-02-19T08:39:15.256Z,3.28
2023-02-19T08:41:42.837Z,4.30
2023-02-19T08:44:10.202Z,4.72
2023-02-19T08:46:37.861Z,4.13
2023-02-19T08:49:05.185Z,3.95
2023-02-19T08:51:33.019Z,3.47
2023-02-19T08:54:03.627Z,5.47
2023-02-19T08:56:31.563Z,3.83
2023-02-19T08:59:03.674Z,2.22
2023-02-19T09:01:47.662Z,3.28
2023-02-19T09:04:15.370Z,3.35
2023-02-19T09:06:43.456Z,2.95
2023-02-19T09:09:10.821Z,3.30
2023-02-19T09:11:41.585Z,5.68
2023-02-19T09:14:09.658Z,7.45
2023-02-19T09:16:37.575Z,7.13
2023-02-19T09:19:05.404Z,3.17
2023-02-19T09:21:33.685Z,4.88
2023-02-19T09:24:01.338Z,3.92
2023-02-19T09:26:28.953Z,4.43
2023-02-19T09:28:56.461Z,3.10
2023-02-19T09:31:24.189Z,3.47
2023-02-19T09:33:51.747Z,4.10
2023-02-19T09:36:19.665Z,8.50
2023-02-19T09:38:47.190Z,3.35
2023-02-19T09:41:38.606Z,4.40
2023-02-19T09:44:10.100Z,2.38
2023-02-19T09:46:50.386Z,2.20
2023-02-19T09:49:27.018Z,5.63
2023-02-19T09:52:01.684Z,9.07
2023-02-19T09:54:38.267Z,2.38
2023-02-19T09:57:18.260Z,3.70
2023-02-19T10:02:17.275Z,15.00
2023-02-19T10:04:46.594Z,32.38
2023-02-19T10:07:20.778Z,10.32
2023-02-19T10:09:56.009Z,9.90
2023-02-19T10:12:27.338Z,2.47
2023-02-19T10:15:01.494Z,7.00
2023-02-19T10:17:34.673Z,2.08
2023-02-19T10:20:05.398Z,4.45
2023-02-19T10:22:36.120Z,2.20
2023-02-19T10:25:03.952Z,2.45
2023-02-19T10:27:31.865Z,1.40
2023-02-19T10:30:00.737Z,2.63
2023-02-19T10:32:29.648Z,2.40
2023-02-19T10:35:16.489Z,1.90
2023-02-19T10:37:47.627Z,4.47
2023-02-19T10:40:29.462Z,5.47
2023-02-19T10:42:59.750Z,1.50
2023-02-19T10:45:47.939Z,3.60
2023-02-19T10:48:41.001Z,2.42
2023-02-19T10:51:20.935Z,4.43
2023-02-19T10:53:51.115Z,3.63
2023-02-19T10:58:53.990Z,1.20
2023-02-19T11:01:28.448Z,2.20
2023-02-19T11:04:17.617Z,4.03
2023-02-19T11:06:46.936Z,1.75
2023-02-19T11:09:45.434Z,3.35
2023-02-19T11:12:15.084Z,3.13
2023-02-19T11:14:45.062Z,2.92
2023-02-19T11:17:30.786Z,1.27
2023-02-19T11:20:16.975Z,2.72
2023-02-19T11:22:49.332Z,1.80
2023-02-19T11:25:17.722Z,2.67
2023-02-19T11:28:12.156Z,3.20
2023-02-19T11:30:44.868Z,3.30
2023-02-19T11:33:27.489Z,1.50
2023-02-19T11:36:15.340Z,2.60
2023-02-19T11:38:42.891Z,2.17
2023-02-19T11:41:42.827Z,1.60
2023-02-19T11:44:13.061Z,2.22
2023-02-19T11:46:59.272Z,1.50
2023-02-19T11:49:55.992Z,1.70
2023-02-19T11:52:42.825Z,2.25
2023-02-19T11:55:33.401Z,1.63
2023-02-19T11:58:37.406Z,11.75
2023-02-19T12:01:30.950Z,4.50
2023-02-19T12:04:25.152Z,1.75
2023-02-19T12:06:55.513Z,1.90
2023-02-19T12:09:33.292Z,15.75
2023-02-19T12:12:16.770Z,3.45
2023-02-19T12:15:17.684Z,10.05
2023-02-19T12:18:04.641Z,2.83
2023-02-19T12:20:46.719Z,11.10
2023-02-19T12:23:57.551Z,5.43
2023-02-19T12:26:29.085Z,1.60
2023-02-19T12:29:03.004Z,3.67
2023-02-19T12:31:49.613Z,1.95
2023-02-19T12:34:19.813Z,2.75
2023-02-19T12:37:27.959Z,1.20
2023-02-19T12:40:34.719Z,1.00
2023-02-19T12:43:21.187Z,2.20
2023-02-19T12:46:06.024Z,1.58
2023-02-19T12:48:47.503Z,1.30
2023-02-19T12:51:32.603Z,0.60
2023-02-19T12:54:06.362Z,1.00
2023-02-19T12:56:43.869Z,1.45
2023-02-19T12:59:19.359Z,0.98
2023-02-19T13:01:56.697Z,1.75
2023-02-19T13:04:42.867Z,3.70
2023-02-19T13:07:38.400Z,1.88
2023-02-19T13:10:17.921Z,2.20
2023-02-19T13:12:47.018Z,0.90
2023-02-19T13:15:20.449Z,0.80
2023-02-19T13:17:55.357Z,2.10
2023-02-19T13:20:56.520Z,0.82
2023-02-19T13:23:48.845Z,0.90
2023-02-19T13:26:33.128Z,0.70
2023-02-19T13:33:22.832Z,1.08
2023-02-19T13:36:12.535Z,6.35
2023-02-19T13:38:50.860Z,4.47
2023-02-19T13:41:30.914Z,8.60
2023-02-19T13:44:08.448Z,10.80
2023-02-19T13:46:43.092Z,1.63
2023-02-19T13:49:29.810Z,8.38
2023-02-19T13:51:59.919Z,3.22
2023-02-19T13:54:40.210Z,13.48
2023-02-19T13:57:23.061Z,11.27
2023-02-19T13:59:52.629Z,6.63
2023-02-19T14:02:22.988Z,1.10
2023-02-19T14:05:03.799Z,0.70
2023-02-19T14:07:38.145Z,2.38
2023-02-19T14:10:12.353Z,1.42
2023-02-19T14:12:39.774Z,2.63
2023-02-19T14:15:25.771Z,1.73
2023-02-19T14:17:55.304Z,2.95
2023-02-19T14:20:35.065Z,5.88
2023-02-19T14:23:23.001Z,1.45
2023-02-19T14:25:55.108Z,3.25
2023-02-19T14:28:33.775Z,7.20
2023-02-19T14:31:32.385Z,3.95
2023-02-19T14:34:03.715Z,1.08
2023-02-19T14:37:07.172Z,5.45
2023-02-19T14:39:40.416Z,3.90
2023-02-19T14:42:16.970Z,1.95
2023-02-19T14:44:49.620Z,2.13
2023-02-19T14:47:20.902Z,4.07
2023-02-19T14:49:52.876Z,4.28
2023-02-19T14:52:25.566Z,1.63
2023-02-19T14:55:08.761Z,1.75
2023-02-19T14:57:41.178Z,3.45
2023-02-19T15:00:27.498Z,9.07
2023-02-19T15:02:57.765Z,3.63
2023-02-19T15:05:28.584Z,4.50
2023-02-19T15:08:00.875Z,2.95
2023-02-19T15:10:30.789Z,1.95
2023-02-19T15:13:04.908Z,3.58
2023-02-19T15:15:45.613Z,1.05
2023-02-19T15:18:20.774Z,3.15
2023-02-19T15:20:49.115Z,2.38
2023-02-19T15:23:24.866Z,2.50
2023-02-19T15:25:54.413Z,2.25
2023-02-19T15:28:32.834Z,2.50
2023-02-19T15:31:00.814Z,0.95
2023-02-19T15:33:30.094Z,1.42
2023-02-19T15:36:01.760Z,1.02
2023-02-19T15:38:30.871Z,3.67
2023-02-19T15:40:59.625Z,1.20
2023-02-19T15:43:32.688Z,1.83
2023-02-19T15:46:09.181Z,0.95
2023-02-19T15:48:46.383Z,1.90
2023-02-19T15:51:44.807Z,1.77
2023-02-19T15:54:28.320Z,0.97
2023-02-19T15:57:04.816Z,0.90
2023-02-19T15:59:36.706Z,1.45
2023-02-19T16:02:05.783Z,1.88
2023-02-19T16:04:35.993Z,1.83
2023-02-19T16:07:03.962Z,1.42
2023-02-19T16:09:40.489Z,1.60
2023-02-19T16:12:25.643Z,2.80
2023-02-19T16:14:58.236Z,3.90
2023-02-19T16:17:28.616Z,2.17
2023-02-19T16:20:03.899Z,1.40
2023-02-19T16:22:40.669Z,1.33
2023-02-19T16:25:25.132Z,1.33
2023-02-19T16:27:53.274Z,1.10
2023-02-19T16:30:29.998Z,1.90
2023-02-19T16:33:20.785Z,1.17
2023-02-19T16:35:49.857Z,1.10
2023-02-19T16:38:19.071Z,1.33
2023-02-19T16:40:56.966Z,1.40
2023-02-19T16:43:47.717Z,1.50
2023-02-19T16:46:16.374Z,1.30
2023-02-19T16:48:44.277Z,1.70
2023-02-19T16:51:27.756Z,1.52
2023-02-19T16:53:56.312Z,1.73
2023-02-19T16:56:27.836Z,2.78
2023-02-19T16:58:55.814Z,2.67
2023-02-19T17:01:24.641Z,2.60
2023-02-19T17:04:06.850Z,2.30
2023-02-19T17:06:38.180Z,1.70
2023-02-19T17:09:08.916Z,2.50
2023-02-19T17:11:36.859Z,3.92
2023-02-19T17:14:04.763Z,3.17
2023-02-19T17:16:40.569Z,3.38
2023-02-19T17:19:17.141Z,4.50
2023-02-19T17:21:45.697Z,4.05
2023-02-19T17:24:14.504Z,4.80
2023-02-19T17:26:42.565Z,4.93
2023-02-19T17:29:15.605Z,6.00
2023-02-19T17:31:43.934Z,6.47
2023-02-19T17:34:11.546Z,6.53
2023-02-19T17:36:40.599Z,5.35
2023-02-19T17:39:15.207Z,6.20
2023-02-19T17:41:44.486Z,9.85
2023-02-19T17:44:12.316Z,10.23
2023-02-19T17:46:40.381Z,7.38
2023-02-19T17:49:08.453Z,7.65
2023-02-19T17:51:36.642Z,9.73
2023-02-19T17:54:06.304Z,8.48
2023-02-19T17:56:36.050Z,5.78
2023-02-19T17:59:04.192Z,6.13
2023-02-19T18:01:32.334Z,7.75
2023-02-19T18:04:00.048Z,10.02
2023-02-19T18:06:28.792Z,18.73
2023-02-19T18:08:56.875Z,14.45
2023-02-19T18:11:25.093Z,9.88
2023-02-19T18:13:53.321Z,9.00
2023-02-19T18:16:22.224Z,8.75
2023-02-19T18:18:49.985Z,11.57
2023-02-19T18:21:18.674Z,8.07
2023-02-19T18:23:47.272Z,7.95
2023-02-19T18:26:20.514Z,10.77
2023-02-19T18:28:48.724Z,5.00
2023-02-19T18:31:17.237Z,8.40
2023-02-19T18:33:45.163Z,6.32
2023-02-19T18:36:13.661Z,5.90
2023-02-19T18:38:42.416Z,8.88
2023-02-19T18:41:14.433Z,9.17
2023-02-19T18:43:42.357Z,9.77
2023-02-19T18:46:11.130Z,8.80
2023-02-19T18:48:39.031Z,9.00
2023-02-19T18:51:11.372Z,8.57
2023-02-19T18:53:39.284Z,5.85
2023-02-19T18:56:09.110Z,5.97
2023-02-19T18:58:36.792Z,8.40
2023-02-19T19:01:05.535Z,6.38
2023-02-19T19:03:34.836Z,7.22
2023-02-19T19:06:02.852Z,6.55
2023-02-19T19:08:32.376Z,6.57
2023-02-19T19:11:01.579Z,6.55
2023-02-19T19:13:29.585Z,5.65
2023-02-19T19:15:57.512Z,4.72
2023-02-19T19:18:25.409Z,6.50
2023-02-19T19:20:56.831Z,5.90
2023-02-19T19:23:24.263Z,4.22
2023-02-19T19:25:54.520Z,4.38
2023-02-19T19:28:22.642Z,3.42
2023-02-19T19:30:50.807Z,3.72
2023-02-19T19:33:18.318Z,4.93
2023-02-19T19:35:46.557Z,4.75
2023-02-19T19:38:14.778Z,5.05
2023-02-19T19:40:43.403Z,3.40
2023-02-19T19:43:13.130Z,4.43
2023-02-19T19:45:41.622Z,8.07
2023-02-19T19:48:09.427Z,7.32
2023-02-19T19:50:39.310Z,7.30
2023-02-19T19:53:08.125Z,6.82
2023-02-19T19:55:40.118Z,7.78
2023-02-19T19:58:17.518Z,5.80
2023-02-19T20:00:45.950Z,7.82
2023-02-19T20:03:14.524Z,4.97
2023-02-19T20:05:42.841Z,4.65
2023-02-19T20:08:10.776Z,4.05
2023-02-19T20:10:42.332Z,4.07
2023-02-19T20:13:10.979Z,3.92
2023-02-19T20:15:42.445Z,3.67
2023-02-19T20:18:12.323Z,4.07
2023-02-19T20:20:47.812Z,3.05
2023-02-19T20:23:17.323Z,2.80
2023-02-19T20:25:51.176Z,3.22
2023-02-19T20:28:23.056Z,2.45
2023-02-19T20:30:52.059Z,2.90
2023-02-19T20:33:20.352Z,3.15
2023-02-19T20:35:48.408Z,2.22
2023-02-19T20:38:17.363Z,2.10
2023-02-19T20:40:47.708Z,2.17
2023-02-19T20:43:16.055Z,1.85
2023-02-19T20:45:46.638Z,2.42
2023-02-19T20:48:19.365Z,2.50
2023-02-19T20:50:48.156Z,4.68
2023-02-19T20:53:16.769Z,3.63
2023-02-19T20:55:48.558Z,2.78
2023-02-19T20:58:18.982Z,2.35
2023-02-19T21:00:49.590Z,2.40
2023-02-19T21:03:17.243Z,2.40
2023-02-19T21:05:45.379Z,1.80
2023-02-19T21:08:14.373Z,1.80
2023-02-19T21:10:44.031Z,2.03
2023-02-19T21:13:13.401Z,2.60
2023-02-19T21:15:42.057Z,1.73
2023-02-19T21:18:10.665Z,1.77
2023-02-19T21:20:39.610Z,1.38
2023-02-19T21:23:07.981Z,1.95
2023-02-19T21:25:37.687Z,2.17
2023-02-19T21:28:11.484Z,2.03
2023-02-19T21:30:45.346Z,2.72
2023-02-19T21:33:14.650Z,1.92
2023-02-19T21:35:46.519Z,1.77
2023-02-19T21:38:15.034Z,1.48
2023-02-19T21:40:44.447Z,1.50
2023-02-19T21:43:13.020Z,1.30
2023-02-19T21:45:42.861Z,1.85
2023-02-19T21:48:10.742Z,2.13
2023-02-19T21:50:39.049Z,2.08
2023-02-19T21:53:06.804Z,1.50
2023-02-19T21:55:34.482Z,1.40
2023-02-19T21:58:01.873Z,1.75
2023-02-19T22:00:30.342Z,1.77
2023-02-19T22:02:57.859Z,2.40
2023-02-19T22:05:26.333Z,1.58
2023-02-19T22:07:54.437Z,2.25
2023-02-19T22:10:36.064Z,2.00
2023-02-19T22:13:05.331Z,2.00
2023-02-19T22:15:33.986Z,2.47
2023-02-19T22:18:07.668Z,2.95
2023-02-19T22:20:38.548Z,2.80
2023-02-19T22:25:33.916Z,1.83
2023-02-19T22:28:04.875Z,1.67
2023-02-19T22:30:32.224Z,2.30
2023-02-19T22:32:59.913Z,2.40
2023-02-19T22:35:27.323Z,1.77
2023-02-19T22:37:55.083Z,2.00
2023-02-19T22:40:22.595Z,2.05
2023-02-19T22:42:50.216Z,2.42
2023-02-19T22:45:17.558Z,1.58
2023-02-19T22:47:47.043Z,1.77
2023-02-19T22:50:19.610Z,3.17
2023-02-19T22:52:47.346Z,2.08
2023-02-19T22:55:15.687Z,2.83
2023-02-19T22:57:43.291Z,2.05
2023-02-19T23:00:17.786Z,2.03
2023-02-19T23:02:48.224Z,2.80
2023-02-19T23:05:18.282Z,2.25
2023-02-19T23:07:46.181Z,1.58
2023-02-19T23:10:13.923Z,2.13
2023-02-19T23:12:41.795Z,1.92
2023-02-19T23:15:10.303Z,2.63
2023-02-19T23:17:37.775Z,2.05
2023-02-19T23:20:05.436Z,2.05
2023-02-19T23:22:34.953Z,2.08
2023-02-19T23:25:02.359Z,1.65
2023-02-19T23:27:29.843Z,2.53
2023-02-19T23:29:57.429Z,2.03
2023-02-19T23:32:24.845Z,1.73
2023-02-19T23:34:52.105Z,1.90
2023-02-19T23:37:19.703Z,2.40
2023-02-19T23:39:46.857Z,2.33
2023-02-19T23:42:19.047Z,1.80
2023-02-19T23:44:47.516Z,1.52
2023-02-19T23:47:15.308Z,1.77
2023-02-19T23:49:42.443Z,1.40
2023-02-19T23:52:09.971Z,1.55
2023-02-19T23:54:37.207Z,1.70
2023-02-19T23:57:04.769Z,2.15
2023-02-19T23:59:32.041Z,1.67
